Terminal Aerodrome Forecast
Issued by NWS

Home | Current Version | Previous Version | Text Only | Print | Product List | Glossary On
Versions: 1 2 3 4 5 6 7 8 9 10 11 12
000
FTUS45 KRIW 101700
TAFLND
TAF
KLND 101724Z 1018/1118 VRB06KT P6SM BKN100
     FM102100 VRB10KT P6SM VCTS SCT070CB BKN100
     FM110500 VRB05KT P6SM SCT100 BKN200=

USA.gov is the U.S. government's official web portal to all federal, state and local government web resources and services.